< Typhoon 198211 1982 Season Typhoon 198213 >
Typhoon 198212 (DOT)
General InformationTrack Information on Google MapsDetailed Wind InformationList of All Images || Disaster Info.ResourceGoogle EarthGE AnimationAtom FeedGeoJSON
Detalied Best Track (Time Zone = UTC)
Year Month Day Hour Lat. Long. Pressure (hPa) Wind (kt) Class Image Chart
1982 8 8 00 8.2 153.7 1006 0 2 Image Chart
1982 8 8 06 8.7 152.5 1004 0 2 Image Chart
1982 8 8 12 9.4 151.4 1004 0 2 Image Chart
1982 8 8 18 10.2 150.2 1004 0 2 Image Chart
1982 8 9 00 10.8 148.7 1002 0 2 Image Chart
1982 8 9 06 10.9 146.7 1000 35 3 Image Chart
1982 8 9 12 11.1 144.7 1000 40 3 Image Chart
1982 8 9 18 11.5 142.7 998 45 3 Image Chart
1982 8 10 00 12.0 140.7 996 45 3 Image Chart
1982 8 10 06 12.4 139.5 990 50 4 Image Chart
1982 8 10 12 12.7 138.1 985 55 4 Image Chart
1982 8 10 18 12.9 136.7 980 55 4 Image Chart
1982 8 11 00 13.2 135.5 980 70 5 Image Chart
1982 8 11 06 13.7 134.5 970 70 5 Image Chart
1982 8 11 12 14.3 133.4 970 70 5 Image Chart
1982 8 11 18 15.0 132.4 975 80 5 Image Chart
1982 8 12 00 15.7 131.7 970 80 5 Image Chart
1982 8 12 06 16.6 130.8 980 60 4 Image Chart
1982 8 12 12 17.6 130.1 990 45 3 Image Chart
1982 8 12 18 18.3 128.8 990 40 3 Image Chart
1982 8 13 00 19.1 127.3 990 40 3 Image Chart
1982 8 13 06 19.9 126.6 990 45 3 Image Chart
1982 8 13 12 20.6 125.7 985 55 4 Image Chart
1982 8 13 18 21.0 124.8 985 55 4 Image Chart
1982 8 14 00 21.3 124.1 985 55 4 Image Chart
1982 8 14 06 21.6 123.2 985 55 4 Image Chart
1982 8 14 12 21.8 122.4 985 55 4 Image Chart
1982 8 14 18 22.1 121.4 985 50 4 Image Chart
1982 8 15 00 23.2 119.8 994 40 3 Image Chart
1982 8 15 06 23.2 118.8 994 40 3 Image Chart
1982 8 15 12 23.0 117.5 994 35 3 Image Chart
1982 8 15 18 23.0 116.0 1000 0 2 Image Chart
1982 8 16 00 23.0 115.0 1000 0 2 Image Chart
1982 8 16 06 24.0 114.0 1000 0 2 Image Chart
1982 8 16 12 25.0 115.0 1002 0 2 Image Chart
1982 8 16 18 25.0 115.0 1002 0 2 Image Chart
1982 8 17 00 26.0 114.0 1004 0 6 Image Chart
1982 8 17 06 27.0 114.0 1004 0 6 Image Chart
1982 8 17 12 27.0 113.0 1002 0 6 Image Chart
1982 8 17 18 27.0 113.0 1002 0 6 Image Chart
1982 8 18 00 27.0 113.0 1004 0 6 Image Chart
Japan Meteorological Agency Best Track Data | Correction Date : 1993-07-16
< Typhoon 198211 1982 Season Typhoon 198213 >

Help